Time;durP1;ratioP1;P1;durP2;ratioP2;P2;SDS_P1;SDS_P2;PMS_P1;PMS_P2;Temp;Humidity;BMP_temperature;BMP_pressure;BME280_temperature;BME280_humidity;BME280_pressure;Samples;Min_cycle;Max_cycle;Signal;HPM_P1;HPM_P2
2021/01/17 00:01:09;;;;;;;27.48;10.03;;;;;;;-7.41;63.87;100038.05;146663;1150;104487;-67
2021/01/17 00:04:12;;;;;;;26.70;10.57;;;;;;;-7.60;62.90;100042.91;147074;1149;104512;-67
2021/01/17 00:07:15;;;;;;;24.40;9.53;;;;;;;-7.89;64.30;100041.98;147016;1150;105052;-67
2021/01/17 00:10:21;;;;;;;26.42;10.03;;;;;;;-8.02;64.00;100040.64;147024;1150;104574;-67
2021/01/17 00:13:24;;;;;;;29.18;10.50;;;;;;;-8.12;64.54;100050.37;147051;1150;104558;-66
2021/01/17 00:16:27;;;;;;;23.98;9.65;;;;;;;-8.17;64.29;100052.25;147014;1150;104460;-67
2021/01/17 00:19:31;;;;;;;26.42;9.08;;;;;;;-8.19;64.16;100057.45;147042;1150;104561;-67
2021/01/17 00:22:34;;;;;;;26.12;9.30;;;;;;;-8.39;63.38;100060.56;147052;1150;104535;-66
2021/01/17 00:25:37;;;;;;;23.87;9.48;;;;;;;-8.53;63.52;100070.42;146664;1150;104558;-66
2021/01/17 00:28:41;;;;;;;20.25;7.17;;;;;;;-8.67;63.61;100072.51;146620;1150;104508;-68
2021/01/17 00:31:44;;;;;;;22.05;8.53;;;;;;;-8.65;63.89;100078.48;146828;1150;104553;-67
2021/01/17 00:34:47;;;;;;;30.82;10.98;;;;;;;-8.82;63.59;100078.88;147061;1150;104536;-66
2021/01/17 00:37:53;;;;;;;23.32;8.70;;;;;;;-8.82;63.77;100095.23;147079;1149;104606;-67
2021/01/17 00:40:56;;;;;;;23.07;9.60;;;;;;;-8.86;63.38;100093.61;146529;1150;104577;-66
2021/01/17 00:44:00;;;;;;;26.12;9.55;;;;;;;-8.86;63.41;100093.61;146488;1150;104497;-65
2021/01/17 00:47:03;;;;;;;18.57;7.62;;;;;;;-8.88;63.57;100095.38;146770;1149;104559;-65
2021/01/17 00:50:09;;;;;;;24.53;8.67;;;;;;;-8.83;63.48;100103.02;146650;1150;104484;-64
2021/01/17 00:53:13;;;;;;;22.30;8.33;;;;;;;-8.94;63.23;100103.28;147027;1150;104660;-65
2021/01/17 00:56:25;;;;;;;21.62;8.13;;;;;;;-8.88;63.80;100121.23;147045;1149;106044;-66
2021/01/17 00:59:29;;;;;;;17.15;6.47;;;;;;;-9.02;62.76;100124.13;147001;1151;104551;-64
2021/01/17 01:02:32;;;;;;;21.57;7.90;;;;;;;-9.15;63.33;100120.11;146775;1149;104566;-64
2021/01/17 01:05:35;;;;;;;24.77;8.45;;;;;;;-9.04;63.00;100118.14;146904;1150;104559;-65
2021/01/17 01:08:38;;;;;;;22.75;7.20;;;;;;;-9.04;63.19;100119.86;146443;1150;105047;-65
2021/01/17 01:11:42;;;;;;;23.43;8.70;;;;;;;-9.00;62.90;100121.52;146534;1150;104861;-66
2021/01/17 01:14:45;;;;;;;18.85;6.70;;;;;;;-8.95;63.09;100114.49;146575;1150;104853;-65
2021/01/17 01:17:48;;;;;;;25.23;8.23;;;;;;;-8.95;62.50;100122.25;146939;1151;104508;-65
2021/01/17 01:20:52;;;;;;;20.68;7.83;;;;;;;-8.86;62.81;100124.64;147059;1151;104479;-67
2021/01/17 01:23:55;;;;;;;18.45;6.53;;;;;;;-8.86;62.20;100137.56;146608;1150;104563;-65
2021/01/17 01:26:59;;;;;;;21.00;7.75;;;;;;;-8.80;63.10;100128.83;147080;1151;104595;-65
2021/01/17 01:30:03;;;;;;;26.17;9.43;;;;;;;-8.83;62.30;100145.27;147060;1149;104603;-68
2021/01/17 01:33:06;;;;;;;18.80;7.20;;;;;;;-8.77;63.11;100139.95;147016;1150;104599;-66
2021/01/17 01:36:10;;;;;;;25.27;9.68;;;;;;;-8.69;62.25;100138.04;147030;1151;104498;-68
2021/01/17 01:39:13;;;;;;;23.67;8.25;;;;;;;-8.64;62.89;100144.84;147051;1151;104593;-65
2021/01/17 01:42:16;;;;;;;23.95;8.85;;;;;;;-8.58;62.12;100145.56;147127;1150;104594;-66
2021/01/17 01:45:20;;;;;;;22.35;8.65;;;;;;;-8.60;62.82;100154.23;146947;1150;104539;-66
2021/01/17 01:48:23;;;;;;;18.90;6.20;;;;;;;-8.74;62.39;100150.21;146827;1150;104628;-66
2021/01/17 01:51:27;;;;;;;21.20;6.50;;;;;;;-8.76;62.77;100154.57;146634;1150;104548;-65
2021/01/17 01:54:31;;;;;;;23.92;8.58;;;;;;;-8.81;61.68;100161.60;146745;1150;104540;-64
2021/01/17 01:57:34;;;;;;;19.17;6.27;;;;;;;-8.87;62.41;100155.70;147021;1150;104579;-64
2021/01/17 02:00:37;;;;;;;22.45;7.50;;;;;;;-8.94;62.76;100165.33;147103;1151;104500;-64
2021/01/17 02:03:47;;;;;;;22.00;8.35;;;;;;;-9.09;62.42;100169.92;147107;1150;104548;-65
2021/01/17 02:07:10;;;;;;;25.77;8.20;;;;;;;-9.17;62.73;100161.48;147050;1151;104567;-66
2021/01/17 02:10:16;;;;;;;21.67;8.03;;;;;;;-9.12;62.79;100175.17;146757;1150;104557;-65
2021/01/17 02:13:24;;;;;;;22.90;8.47;;;;;;;-9.24;62.02;100172.81;147059;1150;104567;-67
2021/01/17 02:16:29;;;;;;;19.93;7.23;;;;;;;-9.30;62.81;100183.28;147030;1151;104557;-67
2021/01/17 02:19:38;;;;;;;23.60;8.48;;;;;;;-9.32;62.55;100185.05;146669;1150;104560;-67
2021/01/17 02:22:47;;;;;;;20.27;8.23;;;;;;;-9.40;62.27;100189.52;146569;1149;104489;-68
2021/01/17 02:25:51;;;;;;;24.05;8.98;;;;;;;-9.44;62.60;100193.04;146995;1149;105085;-66
2021/01/17 02:28:56;;;;;;;20.55;7.83;;;;;;;-9.49;62.69;100199.14;147091;1150;104593;-65
2021/01/17 02:32:01;;;;;;;18.15;7.58;;;;;;;-9.47;62.66;100191.34;147033;1150;104915;-64
2021/01/17 02:35:07;;;;;;;17.42;6.47;;;;;;;-9.48;62.23;100192.23;147075;1151;104569;-65
2021/01/17 02:38:30;;;;;;;17.85;6.62;;;;;;;-9.50;62.21;100205.17;147118;1149;104569;-66
2021/01/17 02:41:39;;;;;;;19.27;6.35;;;;;;;-9.39;62.39;100201.53;146996;1149;104497;-66
2021/01/17 02:44:43;;;;;;;18.67;6.78;;;;;;;-9.55;61.93;100199.23;147142;1150;105238;-65
2021/01/17 02:47:47;;;;;;;20.40;7.00;;;;;;;-9.63;62.03;100198.53;147063;1151;104526;-64
2021/01/17 02:50:50;;;;;;;19.65;6.92;;;;;;;-9.52;62.67;100201.77;147039;1150;104482;-64
2021/01/17 02:54:02;;;;;;;20.35;7.47;;;;;;;-9.32;62.16;100221.22;147034;1150;104585;-65
2021/01/17 02:57:07;;;;;;;15.70;5.70;;;;;;;-9.48;61.55;100208.58;147217;1150;104527;-66
2021/01/17 03:00:15;;;;;;;20.70;6.80;;;;;;;-9.49;62.05;100211.19;147139;1149;104572;-67
2021/01/17 03:03:20;;;;;;;20.68;6.53;;;;;;;-9.55;62.30;100206.14;146986;1150;104560;-65
2021/01/17 03:06:26;;;;;;;21.95;7.85;;;;;;;-9.63;61.68;100206.28;147001;1150;104467;-66
2021/01/17 03:09:32;;;;;;;20.70;7.63;;;;;;;-9.59;61.76;100210.50;147045;1150;104560;-65
2021/01/17 03:12:35;;;;;;;20.08;7.80;;;;;;;-9.56;62.38;100207.03;147009;1151;104564;-67
2021/01/17 03:15:42;;;;;;;19.07;7.00;;;;;;;-9.43;61.33;100207.64;147035;1150;104548;-66
2021/01/17 03:18:45;;;;;;;20.90;7.17;;;;;;;-9.48;61.44;100212.91;147041;1150;104467;-67
2021/01/17 03:21:48;;;;;;;19.77;7.08;;;;;;;-9.48;61.43;100212.91;147022;1149;104552;-65
2021/01/17 03:24:52;;;;;;;16.73;6.83;;;;;;;-9.50;61.36;100217.25;147036;1150;104610;-65
2021/01/17 03:27:55;;;;;;;20.50;7.55;;;;;;;-9.46;61.69;100215.47;147007;1150;104511;-65
2021/01/17 03:30:58;;;;;;;18.05;6.28;;;;;;;-9.42;61.63;100219.70;147063;1150;104597;-65
2021/01/17 03:34:01;;;;;;;16.80;6.60;;;;;;;-9.42;61.28;100227.44;146859;1150;104560;-65
2021/01/17 03:37:06;;;;;;;20.15;7.20;;;;;;;-9.65;61.76;100223.53;146489;1151;104610;-65
2021/01/17 03:40:10;;;;;;;18.73;6.92;;;;;;;-9.66;61.82;100221.81;146565;1151;104482;-66
2021/01/17 03:43:13;;;;;;;20.72;7.62;;;;;;;-9.71;61.31;100233.97;146533;1150;104489;-65
2021/01/17 03:46:17;;;;;;;18.20;6.97;;;;;;;-9.75;61.33;100235.75;146553;1150;104665;-65
2021/01/17 03:49:20;;;;;;;21.00;7.43;;;;;;;-9.64;61.94;100225.25;147006;1150;104476;-65
2021/01/17 03:52:23;;;;;;;13.72;5.08;;;;;;;-9.58;61.34;100235.47;146905;1150;105043;-65
2021/01/17 03:55:27;;;;;;;19.20;7.37;;;;;;;-9.61;61.20;100237.25;146598;1150;104510;-64
2021/01/17 03:58:30;;;;;;;20.50;7.37;;;;;;;-9.73;61.92;100243.48;146602;1150;104576;-64
2021/01/17 04:01:33;;;;;;;19.32;6.70;;;;;;;-9.70;62.20;100235.66;146531;1151;104604;-65
2021/01/17 04:04:36;;;;;;;23.25;7.33;;;;;;;-9.64;61.61;100238.16;146860;1151;104902;-64
2021/01/17 04:07:39;;;;;;;19.70;7.47;;;;;;;-9.78;61.33;100240.11;146505;1150;104633;-60
2021/01/17 04:10:43;;;;;;;18.55;6.70;;;;;;;-9.73;61.47;100251.23;146982;1150;104992;-63
2021/01/17 04:13:46;;;;;;;17.57;6.33;;;;;;;-9.91;61.31;100239.45;146559;1150;104548;-66
2021/01/17 04:16:52;;;;;;;23.42;8.38;;;;;;;-9.96;62.19;100252.44;146706;1150;104598;-65
2021/01/17 04:19:55;;;;;;;18.92;6.55;;;;;;;-9.76;62.64;100259.01;146726;1150;104601;-64
2021/01/17 04:23:01;;;;;;;18.00;6.10;;;;;;;-9.67;60.92;100261.45;146505;1150;104442;-64
2021/01/17 04:26:05;;;;;;;19.63;5.97;;;;;;;-9.70;61.04;100256.31;146611;1149;104482;-65
2021/01/17 04:29:08;;;;;;;18.60;6.95;;;;;;;-9.89;61.45;100258.34;146542;1149;104465;-64
2021/01/17 04:32:11;;;;;;;19.47;6.73;;;;;;;-9.90;61.94;100251.49;146992;1150;104547;-64
2021/01/17 04:35:15;;;;;;;17.70;6.77;;;;;;;-9.85;61.90;100260.03;146815;1150;104484;-65
2021/01/17 04:38:18;;;;;;;21.65;7.25;;;;;;;-9.76;61.41;100266.75;146697;1150;104535;-64
2021/01/17 04:41:27;;;;;;;20.60;7.05;;;;;;;-9.77;62.03;100265.91;146749;1151;104486;-65
2021/01/17 04:44:35;;;;;;;18.80;7.12;;;;;;;-9.63;61.16;100273.42;146834;1150;104527;-65
2021/01/17 04:47:39;;;;;;;20.47;7.33;;;;;;;-9.63;61.53;100277.75;146832;1150;104556;-65
2021/01/17 04:50:46;;;;;;;20.70;7.23;;;;;;;-9.73;60.86;100284.80;146720;1150;104519;-65
2021/01/17 04:53:50;;;;;;;18.30;6.37;;;;;;;-9.93;61.38;100283.38;146800;1150;104559;-65
2021/01/17 04:57:03;;;;;;;20.08;7.22;;;;;;;-9.85;61.63;100290.12;146507;1150;104474;-65
2021/01/17 05:00:10;;;;;;;17.10;6.42;;;;;;;-9.77;61.62;100290.88;146521;1150;104511;-65
2021/01/17 05:03:38;;;;;;;11.85;4.17;;;;;;;-9.76;60.97;100301.16;146570;1149;104640;-66
2021/01/17 05:06:47;;;;;;;18.20;6.17;;;;;;;-9.74;61.85;100298.56;146518;1150;104526;-65
2021/01/17 05:09:59;;;;;;;18.57;7.00;;;;;;;-9.76;61.17;100301.16;146496;1149;104460;-65
2021/01/17 05:13:10;;;;;;;17.43;6.60;;;;;;;-9.82;61.71;100293.52;146512;1150;104502;-65
2021/01/17 05:16:15;;;;;;;15.10;4.85;;;;;;;-9.77;61.88;100289.14;146473;1150;104610;-67
2021/01/17 05:19:20;;;;;;;15.43;6.70;;;;;;;-9.61;61.60;100297.49;146507;1150;104527;-65
2021/01/17 05:22:26;;;;;;;23.60;8.23;;;;;;;-9.54;61.58;100298.26;146471;1150;104637;-64
2021/01/17 05:25:30;;;;;;;19.40;7.22;;;;;;;-9.57;61.53;100299.14;146630;1151;104476;-67
2021/01/17 05:28:34;;;;;;;20.60;7.30;;;;;;;-9.60;61.42;100295.75;146979;1150;104468;-65
2021/01/17 05:31:40;;;;;;;21.85;6.65;;;;;;;-9.49;61.50;100293.84;146718;1150;104609;-65
2021/01/17 05:34:44;;;;;;;19.23;7.22;;;;;;;-9.40;61.28;100295.44;146454;1150;104524;-65
2021/01/17 05:37:55;;;;;;;23.38;7.65;;;;;;;-9.21;61.47;100299.39;148319;1151;104391;-65
2021/01/17 05:40:58;;;;;;;19.80;7.05;;;;;;;-9.23;60.96;100293.41;146776;1150;104497;-65
2021/01/17 05:44:02;;;;;;;25.45;7.53;;;;;;;-9.19;60.69;100291.63;146762;1149;104556;-67
2021/01/17 05:47:06;;;;;;;15.48;6.10;;;;;;;-9.11;61.22;100295.75;147775;1150;104606;-65
2021/01/17 05:50:14;;;;;;;18.62;7.15;;;;;;;-9.00;61.33;100297.30;147094;1150;104533;-64
2021/01/17 05:53:18;;;;;;;21.07;7.12;;;;;;;-8.90;60.85;100299.67;146561;1150;104563;-65
2021/01/17 05:56:22;;;;;;;20.50;7.78;;;;;;;-8.93;60.43;100304.05;146548;1149;104559;-67
2021/01/17 05:59:37;;;;;;;22.32;7.40;;;;;;;-8.96;61.10;100306.70;146567;1150;104563;-66
2021/01/17 06:02:41;;;;;;;19.92;7.35;;;;;;;-8.95;60.84;100308.39;147092;1150;104570;-66
2021/01/17 06:05:47;;;;;;;23.65;8.43;;;;;;;-8.89;61.01;100316.03;146926;1151;104527;-64
2021/01/17 06:08:53;;;;;;;31.37;9.23;;;;;;;-8.96;61.38;100317.89;146941;1150;104529;-65
2021/01/17 06:11:59;;;;;;;31.20;10.63;;;;;;;-8.97;61.08;100320.50;147039;1151;104559;-65
2021/01/17 06:15:11;;;;;;;23.47;8.60;;;;;;;-8.91;61.39;100328.13;147051;1151;104486;-65
2021/01/17 06:18:19;;;;;;;28.25;9.18;;;;;;;-8.91;60.65;100333.30;147044;1150;104561;-65
2021/01/17 06:21:24;;;;;;;22.75;7.72;;;;;;;-8.91;60.78;100339.35;147038;1151;104614;-65
2021/01/17 06:24:35;;;;;;;24.67;9.55;;;;;;;-8.88;60.72;100343.61;146934;1149;104502;-64
2021/01/17 06:27:39;;;;;;;23.73;8.25;;;;;;;-8.90;60.67;100342.78;147032;1150;104449;-65
2021/01/17 06:30:42;;;;;;;24.35;9.10;;;;;;;-8.91;60.42;100343.65;146562;1150;104471;-65
2021/01/17 06:33:48;;;;;;;23.52;8.90;;;;;;;-8.97;60.69;100354.11;147011;1150;104620;-64
2021/01/17 06:36:51;;;;;;;27.55;10.38;;;;;;;-8.90;60.96;100355.71;146696;1150;104886;-63
2021/01/17 06:39:56;;;;;;;24.75;8.75;;;;;;;-8.80;60.89;100369.32;146889;1150;104572;-66
2021/01/17 06:42:59;;;;;;;28.15;9.75;;;;;;;-8.81;59.98;100381.41;146624;1150;104463;-66
2021/01/17 06:46:02;;;;;;;22.93;8.17;;;;;;;-8.89;60.45;100389.30;146593;1150;104465;-61
2021/01/17 06:49:17;;;;;;;25.05;9.15;;;;;;;-8.83;60.80;100385.75;146784;1150;104500;-65
2021/01/17 06:52:21;;;;;;;23.18;8.30;;;;;;;-8.87;60.25;100402.21;146801;1150;104592;-66
2021/01/17 06:55:24;;;;;;;19.87;7.87;;;;;;;-9.02;60.14;100403.32;146451;1149;104572;-64
2021/01/17 06:58:28;;;;;;;25.32;9.88;;;;;;;-9.11;60.29;100404.31;146492;1150;104508;-63
2021/01/17 07:01:41;;;;;;;25.65;8.40;;;;;;;-9.23;60.42;100414.02;146884;1149;104582;-64
2021/01/17 07:05:01;;;;;;;28.05;9.70;;;;;;;-9.24;60.40;100409.72;146483;1150;104560;-65
2021/01/17 07:08:37;;;;;;;23.50;8.68;;;;;;;-9.25;60.79;100414.04;146616;1150;104612;-67
2021/01/17 07:11:55;;;;;;;24.15;8.05;;;;;;;-9.21;60.49;100418.28;147118;1151;104562;-66
2021/01/17 07:15:05;;;;;;;23.00;7.80;;;;;;;-9.24;60.22;100423.48;147035;1150;104519;-67
2021/01/17 07:18:11;;;;;;;20.80;8.88;;;;;;;-9.19;60.65;100434.61;146525;1150;104474;-66
2021/01/17 07:21:19;;;;;;;24.57;9.43;;;;;;;-9.04;60.48;100428.34;146889;1150;104556;-66
2021/01/17 07:24:27;;;;;;;27.10;9.38;;;;;;;-9.01;60.76;100435.19;146872;1150;104607;-65
2021/01/17 07:28:02;;;;;;;26.70;8.70;;;;;;;-8.93;59.90;100425.56;146871;1150;104568;-66
2021/01/17 07:31:17;;;;;;;25.72;9.58;;;;;;;-8.74;60.78;100439.88;146456;1150;104509;-65
2021/01/17 07:34:22;;;;;;;28.07;9.18;;;;;;;-8.66;59.74;100441.48;146498;1150;104557;-67
2021/01/17 07:37:29;;;;;;;43.92;15.40;;;;;;;-8.76;60.00;100438.20;146658;1150;104594;-69
2021/01/17 07:40:52;;;;;;;38.00;12.50;;;;;;;-8.75;60.22;100442.52;147050;1150;104960;-68
2021/01/17 07:44:00;;;;;;;26.47;10.47;;;;;;;-8.58;60.60;100442.19;146708;1151;104551;-68
2021/01/17 07:47:11;;;;;;;37.30;16.82;;;;;;;-8.42;60.03;100450.55;146859;1150;104563;-67
2021/01/17 07:50:15;;;;;;;28.62;11.03;;;;;;;-8.31;60.31;100448.58;146867;1150;104471;-68
2021/01/17 07:53:46;;;;;;;25.10;10.45;;;;;;;-8.22;59.79;100437.18;147066;1150;104502;-65
2021/01/17 07:56:49;;;;;;;;;;;;;;;-8.14;59.64;100436.16;147048;1149;104572;-70
2021/01/17 07:59:52;;;;;;;31.40;10.45;;;;;;;-8.05;59.53;100442.88;147049;1151;104476;-65
2021/01/17 08:02:57;;;;;;;31.47;11.77;;;;;;;-8.06;58.91;100451.54;146991;1150;104569;-67
2021/01/17 08:06:00;;;;;;;34.23;11.80;;;;;;;-8.13;59.32;100447.36;147035;1150;104566;-67
2021/01/17 08:09:05;;;;;;;33.73;12.53;;;;;;;-8.08;59.67;100453.31;146606;1150;104562;-69
2021/01/17 08:12:08;;;;;;;28.42;11.30;;;;;;;-8.03;59.39;100456.64;146857;1150;104491;-68
2021/01/17 08:15:29;;;;;;;34.80;12.05;;;;;;;-8.21;58.57;100444.92;146958;1150;104515;-66
2021/01/17 08:18:36;;;;;;;46.98;23.83;;;;;;;-8.40;58.79;100465.12;146552;1150;104482;-64
2021/01/17 08:21:39;;;;;;;32.53;12.43;;;;;;;-8.53;59.29;100469.69;146793;1150;104560;-66
2021/01/17 08:24:42;;;;;;;31.05;11.50;;;;;;;-8.51;59.59;100483.45;146936;1150;104663;-66
2021/01/17 08:27:46;;;;;;;32.73;12.37;;;;;;;-8.60;58.98;100482.76;146876;1150;104588;-67
2021/01/17 08:30:49;;;;;;;59.80;20.72;;;;;;;-8.85;59.31;100488.37;146821;1150;104572;-68
2021/01/17 08:34:12;;;;;;;35.30;12.13;;;;;;;-8.91;59.88;100499.66;146940;1150;104969;-69
2021/01/17 08:37:17;;;;;;;36.10;12.45;;;;;;;-8.99;59.05;100501.49;147030;1150;104561;-66
2021/01/17 08:40:44;;;;;;;37.33;12.27;;;;;;;-9.08;58.96;100509.41;146870;1151;104559;-68
2021/01/17 08:43:50;;;;;;;33.80;12.00;;;;;;;-9.02;59.52;100517.07;147036;1150;104599;-64
2021/01/17 08:46:53;;;;;;;28.63;9.40;;;;;;;-9.06;58.83;100524.87;146969;1150;104486;-65
2021/01/17 08:49:58;;;;;;;32.13;12.20;;;;;;;-9.13;59.73;100527.55;147015;1150;104566;-70
2021/01/17 08:53:11;;;;;;;40.10;14.38;;;;;;;-8.87;59.54;100525.45;147079;1150;104485;-65
2021/01/17 08:56:25;;;;;;;31.87;11.63;;;;;;;-8.84;59.38;100535.77;147002;1148;104537;-65
2021/01/17 08:59:35;;;;;;;113.53;61.80;;;;;;;-8.76;59.29;100539.92;147041;1150;104908;-64
2021/01/17 09:02:39;;;;;;;80.45;27.60;;;;;;;-8.69;59.56;100538.11;146968;1151;104493;-65
2021/01/17 09:05:43;;;;;;;48.92;23.75;;;;;;;-8.47;59.62;100548.94;147024;1149;104527;-65
2021/01/17 09:09:03;;;;;;;41.07;16.33;;;;;;;-8.33;59.86;100552.13;147059;1150;104943;-66
2021/01/17 09:12:15;;;;;;;32.73;12.03;;;;;;;-8.16;58.57;100556.14;146998;1150;104468;-64
2021/01/17 09:15:19;;;;;;;;;;;;;;;-8.36;58.01;100548.73;147060;1150;104905;-69
2021/01/17 09:18:25;;;;;;;66.28;23.35;;;;;;;-8.52;58.54;100558.53;147067;1150;104614;-67
2021/01/17 09:21:31;;;;;;;72.53;28.10;;;;;;;-8.64;59.21;100558.71;147016;1150;104938;-68
2021/01/17 09:24:36;;;;;;;64.05;25.77;;;;;;;-8.56;58.83;100568.08;146910;1150;104594;-65
2021/01/17 09:27:40;;;;;;;29.12;11.45;;;;;;;-8.54;59.24;100563.73;146897;1150;104567;-64
2021/01/17 09:30:49;;;;;;;62.03;20.32;;;;;;;-8.30;59.01;100569.33;147032;1150;104558;-64
2021/01/17 09:33:53;;;;;;;318.30;121.97;;;;;;;-8.29;59.15;100571.90;147047;1150;104501;-67
2021/01/17 09:36:59;;;;;;;66.50;26.77;;;;;;;-8.31;59.35;100571.07;146996;1150;104468;-66
2021/01/17 09:40:05;;;;;;;52.48;22.62;;;;;;;-8.44;58.20;100582.55;146842;1150;104540;-68
2021/01/17 09:43:09;;;;;;;39.92;15.83;;;;;;;-8.65;58.00;100586.33;146984;1150;104494;-64
2021/01/17 09:46:12;;;;;;;54.10;19.70;;;;;;;-8.78;58.81;100580.47;147017;1150;104546;-68
2021/01/17 09:49:15;;;;;;;35.98;13.30;;;;;;;-8.85;58.02;100585.76;147027;1150;104471;-67
2021/01/17 09:52:20;;;;;;;68.70;25.08;;;;;;;-8.81;58.91;100577.07;146935;1150;104482;-65
2021/01/17 09:55:30;;;;;;;35.10;13.10;;;;;;;-8.79;58.68;100586.54;147737;1149;104551;-73
2021/01/17 09:58:34;;;;;;;37.60;15.13;;;;;;;-8.69;59.04;100587.25;147801;1149;104487;-69
2021/01/17 10:01:37;;;;;;;65.90;24.47;;;;;;;-8.67;58.31;100595.00;146943;1150;104705;-63
2021/01/17 10:04:41;;;;;;;277.27;91.43;;;;;;;-8.82;58.51;100590.90;146903;1151;104500;-65
2021/01/17 10:07:59;;;;;;;89.22;31.33;;;;;;;-8.76;58.99;100603.73;147118;1149;104472;-70
2021/01/17 10:11:02;;;;;;;38.28;14.75;;;;;;;-8.53;58.28;100600.80;147130;1150;104463;-65
2021/01/17 10:14:06;;;;;;;34.70;13.25;;;;;;;-8.37;58.76;100612.59;146814;1150;104492;-65
2021/01/17 10:17:09;;;;;;;32.48;13.48;;;;;;;-8.08;59.33;100603.48;146657;1150;104502;-66
2021/01/17 10:20:22;;;;;;;32.75;13.28;;;;;;;-7.83;58.98;100603.02;146835;1149;104484;-65
2021/01/17 10:23:32;;;;;;;29.02;11.65;;;;;;;-7.74;57.84;100610.63;146790;1150;104578;-69
2021/01/17 10:26:36;;;;;;;43.28;16.32;;;;;;;-7.71;56.94;100614.02;147051;1150;104935;-64
2021/01/17 10:29:42;;;;;;;35.00;13.73;;;;;;;-7.90;57.38;100607.47;146902;1151;104503;-66
2021/01/17 10:32:46;;;;;;;35.60;13.50;;;;;;;-7.91;58.67;100609.22;146522;1149;104700;-64
2021/01/17 10:35:51;;;;;;;33.10;12.75;;;;;;;-7.92;57.42;100624.78;146532;1149;104474;-66
2021/01/17 10:38:54;;;;;;;39.03;15.88;;;;;;;-7.97;57.65;100614.48;146782;1150;104524;-67
2021/01/17 10:42:07;;;;;;;33.55;12.88;;;;;;;-7.83;57.63;100618.56;147040;1150;104473;-66
2021/01/17 10:45:14;;;;;;;115.03;48.68;;;;;;;-7.81;57.50;100617.67;146889;1150;104483;-65
2021/01/17 10:48:18;;;;;;;39.08;14.53;;;;;;;-7.82;57.17;100618.54;146926;1149;104573;-65
2021/01/17 10:51:29;;;;;;;41.63;16.87;;;;;;;-7.99;58.19;100624.02;146734;1150;104501;-66
2021/01/17 10:54:35;;;;;;;43.65;17.57;;;;;;;-8.04;58.51;100627.56;146872;1150;104569;-67
2021/01/17 10:57:41;;;;;;;37.95;13.88;;;;;;;-8.30;56.68;100636.63;146649;1149;104930;-64
2021/01/17 11:00:52;;;;;;;37.88;15.43;;;;;;;-8.39;58.39;100642.82;147038;1150;104550;-64
2021/01/17 11:03:59;;;;;;;36.55;13.90;;;;;;;-8.41;58.42;100641.14;147059;1150;104591;-66
2021/01/17 11:07:03;;;;;;;31.77;13.18;;;;;;;-8.32;58.30;100644.41;147003;1151;104482;-65
2021/01/17 11:10:14;;;;;;;650.90;294.30;;;;;;;-8.34;57.71;100638.41;147018;1150;104476;-71
2021/01/17 11:13:17;;;;;;;55.73;23.62;;;;;;;-8.37;57.55;100642.77;146944;1150;104489;-64
2021/01/17 11:16:35;;;;;;;84.42;31.75;;;;;;;-8.42;57.56;100642.89;147021;1151;104665;-72
2021/01/17 11:19:41;;;;;;;232.07;73.22;;;;;;;-8.33;58.22;100641.88;147062;1149;104576;-64
2021/01/17 11:22:44;;;;;;;89.28;30.52;;;;;;;-8.27;58.21;100639.18;146770;1150;104447;-65
2021/01/17 11:25:57;;;;;;;77.17;25.85;;;;;;;-8.14;57.36;100638.10;146980;1150;104568;-65
2021/01/17 11:29:02;;;;;;;87.47;28.42;;;;;;;-8.13;56.77;100646.71;146595;1149;104457;-65
2021/01/17 11:32:07;;;;;;;186.90;60.63;;;;;;;-8.27;57.19;100646.06;146601;1150;104640;-67
2021/01/17 11:35:24;;;;;;;58.52;21.52;;;;;;;-8.15;58.28;100646.73;147035;1150;104627;-67
2021/01/17 11:38:42;;;;;;;114.37;48.75;;;;;;;-8.04;58.53;100643.97;146784;1150;104493;-69
2021/01/17 11:41:46;;;;;;;55.43;22.42;;;;;;;-7.75;57.96;100652.97;146772;1149;104619;-67
2021/01/17 11:44:49;;;;;;;61.43;24.23;;;;;;;-7.91;57.24;100645.47;146990;1150;104464;-67
2021/01/17 11:47:59;;;;;;;38.08;14.80;;;;;;;-7.99;56.61;100647.32;146740;1150;104644;-67
2021/01/17 11:51:03;;;;;;;46.42;18.62;;;;;;;-8.10;57.17;100644.09;146124;1150;104508;-69
2021/01/17 11:54:12;;;;;;;49.85;18.70;;;;;;;-8.15;57.96;100640.70;146859;1149;104460;-66
2021/01/17 11:57:15;;;;;;;38.63;15.28;;;;;;;-8.11;56.31;100639.77;146745;1149;104479;-65
2021/01/17 12:00:20;;;;;;;36.58;14.23;;;;;;;-8.10;57.62;100644.09;147131;1151;104499;-66
2021/01/17 12:03:32;;;;;;;38.38;14.63;;;;;;;-8.08;57.70;100637.14;147264;1150;104470;-67
2021/01/17 12:06:35;;;;;;;39.58;15.53;;;;;;;-8.02;57.50;100644.80;147203;1149;104594;-65
2021/01/17 12:09:39;;;;;;;35.40;13.90;;;;;;;-8.03;58.09;100640.48;147160;1151;104538;-65
2021/01/17 12:12:42;;;;;;;40.60;17.73;;;;;;;-8.05;57.66;100628.46;147429;1150;104569;-69
2021/01/17 12:15:46;;;;;;;39.70;16.48;;;;;;;-7.99;57.80;100631.78;147031;1149;104480;-69
2021/01/17 12:18:49;;;;;;;37.25;14.45;;;;;;;-7.87;56.77;100641.09;147101;1150;104610;-64
2021/01/17 12:21:56;;;;;;;38.83;14.28;;;;;;;-8.05;57.40;100637.07;146987;1149;104569;-64
2021/01/17 12:24:59;;;;;;;39.00;16.30;;;;;;;-8.05;57.34;100639.66;147145;1150;104593;-65
2021/01/17 12:28:03;;;;;;;43.35;15.08;;;;;;;-8.03;57.02;100644.82;147126;1150;104522;-65
2021/01/17 12:31:10;;;;;;;36.90;14.38;;;;;;;-8.14;56.83;100653.63;147379;1150;104507;-64
2021/01/17 12:34:14;;;;;;;40.03;15.37;;;;;;;-8.23;56.62;100648.59;146823;1150;105049;-66
2021/01/17 12:37:17;;;;;;;37.98;16.05;;;;;;;-8.39;56.04;100648.00;146656;1150;104496;-66
2021/01/17 12:40:20;;;;;;;41.48;17.07;;;;;;;-8.61;56.59;100651.81;147096;1151;104521;-65
2021/01/17 12:43:23;;;;;;;44.95;17.52;;;;;;;-8.69;57.50;100655.35;147295;1150;104482;-67
2021/01/17 12:46:27;;;;;;;70.70;28.15;;;;;;;-8.66;57.49;100659.62;146842;1150;104460;-65
2021/01/17 12:49:31;;;;;;;39.65;14.93;;;;;;;-8.61;57.90;100656.98;147064;1150;104540;-65
2021/01/17 12:52:34;;;;;;;37.78;14.47;;;;;;;-8.44;57.44;100655.00;146942;1150;104571;-64
2021/01/17 12:55:37;;;;;;;37.23;13.67;;;;;;;-8.40;56.98;100658.37;146801;1149;104560;-62
2021/01/17 12:58:40;;;;;;;51.08;16.93;;;;;;;-8.28;56.30;100663.34;146550;1150;104563;-62
2021/01/17 13:01:43;;;;;;;45.03;16.15;;;;;;;-8.48;56.91;100671.45;146582;1150;104559;-66
2021/01/17 13:04:46;;;;;;;40.35;15.03;;;;;;;-8.52;56.65;100680.14;146908;1150;104572;-63
2021/01/17 13:07:50;;;;;;;39.55;16.12;;;;;;;-8.60;57.05;100679.38;146907;1149;104559;-67
2021/01/17 13:10:53;;;;;;;40.17;15.90;;;;;;;-8.48;56.35;100680.95;146971;1150;104535;-66
2021/01/17 13:13:56;;;;;;;92.25;35.90;;;;;;;-8.48;57.29;100679.22;146915;1150;104505;-64
2021/01/17 13:16:59;;;;;;;69.03;26.35;;;;;;;-8.55;56.86;100688.78;147025;1150;104502;-65
2021/01/17 13:20:03;;;;;;;84.28;30.10;;;;;;;-8.59;57.57;100691.45;146902;1149;105008;-65
2021/01/17 13:23:06;;;;;;;54.60;19.32;;;;;;;-8.81;56.52;100691.74;147087;1150;104583;-65
2021/01/17 13:26:16;;;;;;;69.40;28.77;;;;;;;-9.07;57.25;100697.23;146928;1150;104401;-66
2021/01/17 13:29:21;;;;;;;59.65;22.73;;;;;;;-8.92;56.86;100699.62;146734;1151;104563;-65
2021/01/17 13:32:24;;;;;;;60.70;23.38;;;;;;;-9.14;57.07;100693.88;147015;1150;104480;-66
2021/01/17 13:35:28;;;;;;;62.05;24.07;;;;;;;-9.25;56.90;100693.14;147024;1150;104588;-64
2021/01/17 13:38:32;;;;;;;62.35;23.25;;;;;;;-9.35;57.45;100688.92;147050;1151;104559;-63
2021/01/17 13:41:35;;;;;;;66.72;24.67;;;;;;;-9.34;57.68;100695.82;147061;1150;104482;-63
2021/01/17 13:44:38;;;;;;;58.00;21.27;;;;;;;-9.29;57.51;100688.89;147052;1151;104503;-63
2021/01/17 13:47:42;;;;;;;57.45;20.02;;;;;;;-9.26;57.86;100698.32;146887;1151;104468;-64
2021/01/17 13:50:45;;;;;;;49.27;17.57;;;;;;;-9.23;57.91;100693.98;146849;1151;104482;-65
2021/01/17 13:53:48;;;;;;;61.08;20.75;;;;;;;-9.10;57.91;100703.30;146967;1151;104563;-65